createdAt,value
2018-12-06T00:02:11.929Z,6.10
2018-12-06T00:04:40.267Z,7.03
2018-12-06T00:07:08.697Z,6.07
2018-12-06T00:09:37.034Z,7.20
2018-12-06T00:12:05.398Z,7.00
2018-12-06T00:14:33.725Z,6.63
2018-12-06T00:17:02.123Z,6.80
2018-12-06T00:19:30.779Z,7.40
2018-12-06T00:21:59.082Z,7.43
2018-12-06T00:24:27.382Z,7.90
2018-12-06T00:26:55.923Z,7.57
2018-12-06T00:29:24.954Z,8.13
2018-12-06T00:31:53.280Z,7.07
2018-12-06T00:34:21.610Z,8.30
2018-12-06T00:36:49.928Z,9.13
2018-12-06T00:39:18.240Z,8.47
2018-12-06T00:41:46.615Z,8.07
2018-12-06T00:44:14.921Z,8.13
2018-12-06T00:46:43.539Z,8.80
2018-12-06T00:49:11.877Z,8.20
2018-12-06T00:51:40.270Z,8.37
2018-12-06T00:54:08.602Z,9.17
2018-12-06T00:56:36.910Z,8.33
2018-12-06T00:59:05.365Z,9.23
2018-12-06T01:01:33.814Z,8.83
2018-12-06T01:04:02.212Z,8.53
2018-12-06T01:06:30.557Z,9.70
2018-12-06T01:08:59.039Z,8.70
2018-12-06T01:11:28.298Z,8.17
2018-12-06T01:13:56.803Z,8.70
2018-12-06T01:16:25.154Z,9.73
2018-12-06T01:18:53.502Z,9.50
2018-12-06T01:21:22.090Z,9.23
2018-12-06T01:23:50.628Z,9.33
2018-12-06T01:26:18.966Z,9.13
2018-12-06T01:31:55.876Z,9.63
2018-12-06T01:34:24.236Z,10.30
2018-12-06T01:36:52.606Z,9.57
2018-12-06T01:39:21.002Z,9.93
2018-12-06T01:41:49.366Z,9.80
2018-12-06T01:44:17.794Z,10.73
2018-12-06T01:46:46.171Z,10.07
2018-12-06T01:49:14.509Z,10.53
2018-12-06T01:51:42.846Z,11.07
2018-12-06T01:54:11.308Z,10.80
2018-12-06T01:56:39.661Z,10.80
2018-12-06T01:59:08.136Z,11.70
2018-12-06T02:01:36.510Z,10.87
2018-12-06T02:04:05.048Z,10.67
2018-12-06T02:06:33.400Z,11.03
2018-12-06T02:09:01.769Z,10.43
2018-12-06T02:11:30.125Z,11.03
2018-12-06T02:13:58.478Z,11.07
2018-12-06T02:16:26.989Z,10.33
2018-12-06T02:18:55.338Z,10.57
2018-12-06T02:21:23.859Z,11.37
2018-12-06T02:23:52.218Z,10.43
2018-12-06T02:26:20.554Z,12.20
2018-12-06T02:28:48.913Z,10.90
2018-12-06T02:31:17.274Z,11.37
2018-12-06T02:33:45.608Z,11.70
2018-12-06T02:36:13.948Z,11.90
2018-12-06T02:38:42.328Z,12.07
2018-12-06T02:41:10.676Z,11.90
2018-12-06T02:43:39.024Z,12.23
2018-12-06T02:46:07.386Z,10.97
2018-12-06T02:48:35.746Z,12.07
2018-12-06T02:51:04.240Z,12.77
2018-12-06T02:53:32.606Z,12.73
2018-12-06T02:56:00.970Z,13.90
2018-12-06T02:58:29.324Z,13.67
2018-12-06T03:00:57.680Z,12.50
2018-12-06T03:03:26.032Z,13.47
2018-12-06T03:05:54.377Z,12.60
2018-12-06T03:08:22.714Z,13.53
2018-12-06T03:10:51.559Z,13.80
2018-12-06T03:13:19.908Z,13.00
2018-12-06T03:15:48.292Z,13.77
2018-12-06T03:18:16.635Z,13.60
2018-12-06T03:20:44.987Z,13.67
2018-12-06T03:23:13.623Z,12.90
2018-12-06T03:25:42.011Z,13.47
2018-12-06T03:28:10.361Z,13.03
2018-12-06T03:30:38.732Z,13.50
2018-12-06T03:33:07.102Z,12.83
2018-12-06T03:35:36.313Z,12.83
2018-12-06T03:38:05.039Z,12.73
2018-12-06T03:40:33.485Z,12.80
2018-12-06T03:43:01.858Z,12.80
2018-12-06T03:45:30.242Z,11.90
2018-12-06T03:47:58.869Z,12.13
2018-12-06T03:50:27.203Z,11.67
2018-12-06T03:52:55.550Z,12.77
2018-12-06T03:55:23.914Z,12.37
2018-12-06T03:57:52.259Z,12.30
2018-12-06T04:00:21.373Z,12.57
2018-12-06T04:02:50.864Z,13.23
2018-12-06T04:05:19.216Z,13.03
2018-12-06T04:07:47.634Z,14.50
2018-12-06T04:10:15.993Z,13.83
2018-12-06T04:12:44.413Z,13.27
2018-12-06T04:15:12.886Z,12.97
2018-12-06T04:17:41.261Z,12.67
2018-12-06T04:20:09.761Z,13.33
2018-12-06T04:22:38.105Z,12.87
2018-12-06T04:25:06.819Z,12.77
2018-12-06T04:27:35.168Z,12.90
2018-12-06T04:30:03.946Z,13.50
2018-12-06T04:32:32.300Z,13.80
2018-12-06T04:35:00.646Z,13.60
2018-12-06T04:37:28.986Z,13.40
2018-12-06T04:39:57.370Z,12.70
2018-12-06T04:42:25.735Z,12.57
2018-12-06T04:44:54.105Z,12.20
2018-12-06T04:47:22.451Z,12.80
2018-12-06T04:49:50.803Z,12.40
2018-12-06T04:52:19.176Z,13.50
2018-12-06T04:54:47.632Z,13.17
2018-12-06T04:57:16.001Z,12.83
2018-12-06T04:59:44.386Z,13.43
2018-12-06T05:02:12.786Z,13.17
2018-12-06T05:04:41.162Z,12.47
2018-12-06T05:07:16.060Z,13.80
2018-12-06T05:09:44.445Z,13.33
2018-12-06T05:12:12.816Z,13.47
2018-12-06T05:14:41.177Z,12.90
2018-12-06T05:17:09.535Z,12.90
2018-12-06T05:19:37.908Z,12.53
2018-12-06T05:22:06.280Z,13.33
2018-12-06T05:24:34.745Z,12.00
2018-12-06T05:27:03.180Z,12.27
2018-12-06T05:29:31.517Z,12.43
2018-12-06T05:31:59.869Z,11.43
2018-12-06T05:34:28.226Z,11.57
2018-12-06T05:36:56.574Z,12.10
2018-12-06T05:39:25.002Z,12.37
2018-12-06T05:41:53.370Z,11.60
2018-12-06T05:44:21.750Z,10.70
2018-12-06T05:46:50.100Z,11.37
2018-12-06T05:49:18.515Z,11.20
2018-12-06T05:51:46.922Z,10.40
2018-12-06T05:54:15.276Z,10.40
2018-12-06T05:56:43.684Z,10.60
2018-12-06T05:59:12.030Z,9.70
2018-12-06T06:01:40.397Z,10.40
2018-12-06T06:04:08.720Z,9.87
2018-12-06T06:06:37.060Z,9.37
2018-12-06T06:09:07.298Z,8.30
2018-12-06T06:11:35.866Z,8.50
2018-12-06T06:14:04.844Z,8.10
2018-12-06T06:16:33.206Z,7.67
2018-12-06T06:19:01.564Z,8.07
2018-12-06T06:21:29.899Z,7.70
2018-12-06T06:23:58.265Z,7.17
2018-12-06T06:26:26.640Z,7.57
2018-12-06T06:28:55.955Z,7.00
2018-12-06T06:31:24.318Z,7.07
2018-12-06T06:33:52.673Z,6.43
2018-12-06T06:36:21.156Z,6.07
2018-12-06T06:38:49.504Z,5.67
2018-12-06T06:41:17.867Z,6.67
2018-12-06T06:43:46.250Z,6.20
2018-12-06T06:46:14.791Z,5.40
2018-12-06T06:48:43.174Z,5.63
2018-12-06T06:51:11.519Z,4.50
2018-12-06T06:53:39.881Z,4.77
2018-12-06T06:56:08.330Z,5.53
2018-12-06T06:58:36.715Z,3.83
2018-12-06T07:01:05.070Z,3.77
2018-12-06T07:03:33.413Z,3.87
2018-12-06T07:06:01.795Z,3.40
2018-12-06T07:08:30.151Z,3.43
2018-12-06T07:10:58.508Z,3.40
2018-12-06T07:13:26.841Z,3.97
2018-12-06T07:15:55.191Z,3.10
2018-12-06T07:18:23.539Z,2.90
2018-12-06T07:20:51.908Z,2.67
2018-12-06T07:23:20.366Z,2.97
2018-12-06T07:25:48.730Z,2.50
2018-12-06T07:28:17.193Z,2.47
2018-12-06T07:30:45.963Z,3.20
2018-12-06T07:33:14.288Z,2.50
2018-12-06T07:35:42.697Z,2.30
2018-12-06T07:38:11.043Z,2.93
2018-12-06T07:40:39.401Z,2.60
2018-12-06T07:43:07.764Z,2.30
2018-12-06T07:45:36.143Z,2.40
2018-12-06T07:48:04.761Z,2.37
2018-12-06T07:50:33.111Z,2.40
2018-12-06T07:53:01.459Z,2.47
2018-12-06T07:55:29.841Z,2.07
2018-12-06T07:57:58.185Z,2.20
2018-12-06T08:00:28.346Z,3.00
2018-12-06T08:02:56.688Z,2.33
2018-12-06T08:05:25.116Z,2.30
2018-12-06T08:07:53.458Z,2.50
2018-12-06T08:10:21.932Z,3.60
2018-12-06T08:12:50.296Z,2.47
2018-12-06T08:15:18.651Z,2.70
2018-12-06T08:17:47.060Z,2.40
2018-12-06T08:20:15.461Z,2.97
2018-12-06T08:22:43.942Z,2.90
2018-12-06T08:25:12.288Z,3.10
2018-12-06T08:27:40.641Z,2.53
2018-12-06T08:30:09.104Z,2.70
2018-12-06T08:32:37.900Z,2.47
2018-12-06T08:35:06.689Z,2.53
2018-12-06T08:37:35.146Z,3.00
2018-12-06T08:40:03.919Z,3.00
2018-12-06T08:42:32.337Z,2.83
2018-12-06T08:45:00.711Z,2.47
2018-12-06T08:47:29.089Z,2.50
2018-12-06T08:49:57.466Z,2.57
2018-12-06T08:52:25.832Z,2.80
2018-12-06T08:54:54.215Z,2.90
2018-12-06T08:57:22.569Z,2.60
2018-12-06T08:59:50.917Z,2.67
2018-12-06T09:02:19.254Z,2.70
2018-12-06T09:04:47.587Z,2.53
2018-12-06T09:07:15.931Z,3.00
2018-12-06T09:09:44.289Z,2.50
2018-12-06T09:12:12.632Z,2.17
2018-12-06T09:14:40.977Z,2.60
2018-12-06T09:19:03.093Z,2.37
2018-12-06T09:21:31.434Z,2.10
2018-12-06T09:23:59.798Z,2.30
2018-12-06T09:26:28.141Z,2.03
2018-12-06T09:28:56.482Z,2.23
2018-12-06T09:31:24.937Z,2.30
2018-12-06T09:34:02.523Z,2.40
2018-12-06T09:36:30.972Z,2.20
2018-12-06T09:38:59.789Z,2.20
2018-12-06T09:41:28.341Z,2.00
2018-12-06T09:43:56.913Z,2.30
2018-12-06T09:46:25.382Z,2.20
2018-12-06T09:48:53.829Z,2.57
2018-12-06T09:51:22.282Z,2.60
2018-12-06T09:53:50.644Z,3.23
2018-12-06T09:56:19.024Z,3.30
2018-12-06T09:58:47.364Z,2.73
2018-12-06T10:01:16.299Z,3.07
2018-12-06T10:03:44.668Z,2.80
2018-12-06T10:06:13.024Z,3.47
2018-12-06T10:08:41.386Z,2.83
2018-12-06T10:11:09.756Z,2.93
2018-12-06T10:13:38.112Z,3.83
2018-12-06T10:16:06.567Z,3.70
2018-12-06T10:18:34.944Z,3.83
2018-12-06T10:21:03.308Z,3.90
2018-12-06T10:23:31.687Z,4.13
2018-12-06T10:26:00.031Z,3.63
2018-12-06T10:28:28.443Z,3.93
2018-12-06T10:30:56.803Z,3.77
2018-12-06T10:33:25.166Z,3.90
2018-12-06T10:35:53.743Z,3.50
2018-12-06T10:38:22.115Z,4.30
2018-12-06T10:40:50.476Z,4.43
2018-12-06T10:43:19.070Z,3.97
2018-12-06T10:45:47.481Z,3.83
2018-12-06T10:48:15.902Z,3.93
2018-12-06T10:50:44.261Z,2.93
2018-12-06T10:53:12.604Z,3.00
2018-12-06T10:55:40.939Z,3.43
2018-12-06T10:58:09.304Z,2.93
2018-12-06T11:00:43.199Z,3.60
2018-12-06T11:03:13.616Z,3.50
2018-12-06T11:05:42.749Z,3.30
2018-12-06T11:08:11.683Z,3.23
2018-12-06T11:10:40.049Z,2.87
2018-12-06T11:13:08.427Z,3.93
2018-12-06T11:15:36.749Z,3.10
2018-12-06T11:18:05.086Z,3.60
2018-12-06T11:20:33.444Z,3.40
2018-12-06T11:23:01.774Z,3.40
2018-12-06T11:25:30.106Z,3.67
2018-12-06T11:27:58.463Z,3.90
2018-12-06T11:30:26.792Z,4.07
2018-12-06T11:32:55.180Z,3.80
2018-12-06T11:35:23.540Z,3.07
2018-12-06T11:37:52.082Z,3.47
2018-12-06T11:40:20.399Z,3.30
2018-12-06T11:42:48.765Z,3.47
2018-12-06T11:45:17.205Z,3.90
2018-12-06T11:47:45.550Z,3.80
2018-12-06T11:50:13.872Z,3.73
2018-12-06T11:52:42.211Z,4.17
2018-12-06T11:55:10.521Z,3.60
2018-12-06T11:57:38.857Z,3.90
2018-12-06T12:00:13.505Z,3.67
2018-12-06T12:02:41.909Z,3.60
2018-12-06T12:05:10.325Z,3.70
2018-12-06T12:07:38.656Z,3.87
2018-12-06T12:10:07.223Z,3.73
2018-12-06T12:12:35.540Z,4.43
2018-12-06T12:15:04.390Z,3.80
2018-12-06T12:17:32.706Z,4.20
2018-12-06T12:20:01.033Z,3.40
2018-12-06T12:22:29.345Z,3.47
2018-12-06T12:24:57.669Z,3.57
2018-12-06T12:27:26.009Z,3.67
2018-12-06T12:29:54.345Z,3.53
2018-12-06T12:32:22.638Z,3.60
2018-12-06T12:34:50.941Z,4.50
2018-12-06T12:37:19.267Z,4.00
2018-12-06T12:39:47.905Z,3.80
2018-12-06T12:42:16.236Z,4.53
2018-12-06T12:44:44.589Z,3.93
2018-12-06T12:47:12.932Z,4.10
2018-12-06T12:49:41.261Z,4.50
2018-12-06T12:52:09.581Z,3.70
2018-12-06T12:54:37.911Z,3.33
2018-12-06T12:57:06.266Z,3.63
2018-12-06T12:59:34.583Z,3.67
2018-12-06T13:02:02.899Z,3.80
2018-12-06T13:04:31.231Z,3.67
2018-12-06T13:07:09.811Z,3.37
2018-12-06T13:09:38.143Z,3.63
2018-12-06T13:12:06.561Z,3.17
2018-12-06T13:14:34.900Z,3.13
2018-12-06T13:17:03.280Z,3.83
2018-12-06T13:19:31.640Z,3.67
2018-12-06T13:22:00.067Z,3.47
2018-12-06T13:24:28.384Z,3.83
2018-12-06T13:26:56.700Z,3.97
2018-12-06T13:29:25.011Z,4.00
2018-12-06T13:31:53.686Z,3.97
2018-12-06T13:34:21.991Z,3.73
2018-12-06T13:36:50.302Z,3.87
2018-12-06T13:39:18.656Z,3.63
2018-12-06T13:41:47.006Z,3.40
2018-12-06T13:44:15.350Z,3.33
2018-12-06T13:46:43.678Z,3.70
2018-12-06T13:49:12.028Z,3.63
2018-12-06T13:51:40.356Z,3.73
2018-12-06T13:54:08.698Z,3.07
2018-12-06T13:56:37.053Z,2.67
2018-12-06T13:59:05.428Z,3.23
2018-12-06T14:01:33.787Z,2.63
2018-12-06T14:04:02.110Z,2.83
2018-12-06T14:06:30.436Z,2.37
2018-12-06T14:08:58.792Z,2.30
2018-12-06T14:11:27.146Z,2.50
2018-12-06T14:13:55.473Z,2.90
2018-12-06T14:16:23.795Z,2.77
2018-12-06T14:18:52.137Z,2.30
2018-12-06T14:21:20.475Z,2.63
2018-12-06T14:23:48.932Z,3.00
2018-12-06T14:26:17.252Z,2.40
2018-12-06T14:28:45.625Z,3.00
2018-12-06T14:31:13.968Z,3.10
2018-12-06T14:33:42.531Z,2.90
2018-12-06T14:36:10.851Z,3.27
2018-12-06T14:38:39.184Z,3.00
2018-12-06T14:41:07.719Z,3.37
2018-12-06T14:43:36.122Z,3.57
2018-12-06T14:46:04.847Z,4.20
2018-12-06T14:48:33.560Z,3.50
2018-12-06T14:51:01.897Z,3.00
2018-12-06T14:53:30.218Z,3.23
2018-12-06T14:55:58.610Z,3.00
2018-12-06T14:58:27.063Z,3.20
2018-12-06T15:00:55.454Z,2.60
2018-12-06T15:03:23.867Z,2.50
2018-12-06T15:05:52.187Z,2.00
2018-12-06T15:08:20.518Z,2.53
2018-12-06T15:10:48.840Z,2.03
2018-12-06T15:13:17.169Z,1.63
2018-12-06T15:15:45.562Z,2.07
2018-12-06T15:18:13.914Z,1.80
2018-12-06T15:20:42.283Z,1.70
2018-12-06T15:23:10.621Z,1.83
2018-12-06T15:25:41.988Z,2.00
2018-12-06T15:28:09.427Z,1.90
2018-12-06T15:30:37.740Z,1.70
2018-12-06T15:33:06.162Z,2.23
2018-12-06T15:35:34.847Z,1.93
2018-12-06T15:38:03.273Z,2.10
2018-12-06T15:40:31.618Z,2.30
2018-12-06T15:42:59.969Z,2.70
2018-12-06T15:45:28.286Z,2.50
2018-12-06T15:47:56.855Z,2.73
2018-12-06T15:50:25.184Z,2.70
2018-12-06T15:52:53.508Z,2.63
2018-12-06T15:55:21.909Z,3.50
2018-12-06T15:57:50.280Z,3.83
2018-12-06T16:00:18.913Z,3.37
2018-12-06T16:02:48.733Z,3.40
2018-12-06T16:05:17.056Z,3.10
2018-12-06T16:07:45.392Z,2.60
2018-12-06T16:10:13.735Z,2.43
2018-12-06T16:12:42.175Z,2.90
2018-12-06T16:15:10.608Z,2.90
2018-12-06T16:17:39.192Z,2.90
2018-12-06T16:20:09.684Z,2.90
2018-12-06T16:22:38.014Z,2.57
2018-12-06T16:25:07.074Z,2.83
2018-12-06T16:27:35.423Z,2.70
2018-12-06T16:30:04.482Z,2.43
2018-12-06T16:32:32.813Z,1.80
2018-12-06T16:35:01.155Z,1.90
2018-12-06T16:37:29.908Z,1.73
2018-12-06T16:39:58.328Z,1.73
2018-12-06T16:42:26.704Z,2.00
2018-12-06T16:44:55.035Z,2.07
2018-12-06T16:47:23.563Z,1.93
2018-12-06T16:49:52.382Z,2.27
2018-12-06T16:52:20.873Z,2.23
2018-12-06T21:06:05.479Z,4.60
2018-12-06T21:08:33.811Z,4.30
2018-12-06T21:11:02.191Z,6.07
2018-12-06T21:13:30.555Z,4.07
2018-12-06T21:15:58.890Z,4.50
2018-12-06T21:18:27.227Z,4.33
2018-12-06T21:20:55.579Z,4.47
2018-12-06T21:26:01.737Z,4.37
2018-12-06T21:28:30.111Z,4.93
2018-12-06T21:30:58.466Z,4.13
2018-12-06T21:33:26.810Z,4.03
2018-12-06T21:35:55.141Z,3.70
2018-12-06T21:38:30.518Z,3.67
2018-12-06T21:40:58.864Z,4.20
2018-12-06T21:43:27.170Z,3.20
2018-12-06T21:45:55.492Z,4.10
2018-12-06T21:48:23.828Z,3.17
2018-12-06T21:50:52.236Z,3.63
2018-12-06T21:53:20.560Z,3.17
2018-12-06T21:55:48.934Z,3.20
2018-12-06T21:58:17.254Z,2.90
2018-12-06T22:00:45.587Z,3.20
2018-12-06T22:03:14.056Z,3.00
2018-12-06T22:05:43.037Z,2.80
2018-12-06T22:08:11.621Z,2.80
2018-12-06T22:10:39.947Z,2.87
2018-12-06T22:13:08.266Z,2.80
2018-12-06T22:15:36.620Z,2.70
2018-12-06T22:18:04.933Z,3.00
2018-12-06T22:20:33.235Z,2.83
2018-12-06T22:23:01.537Z,2.70
2018-12-06T22:25:29.964Z,3.17
2018-12-06T22:27:58.314Z,2.37
2018-12-06T22:30:26.658Z,2.50
2018-12-06T22:32:55.007Z,2.40
2018-12-06T22:35:23.314Z,2.27
2018-12-06T22:37:51.666Z,2.30
2018-12-06T22:40:19.997Z,2.20
2018-12-06T22:42:48.394Z,3.23
2018-12-06T22:45:57.207Z,2.20
2018-12-06T22:48:25.712Z,2.37
2018-12-06T22:50:54.046Z,2.93
2018-12-06T22:53:22.563Z,2.33
2018-12-06T22:55:50.882Z,2.30
2018-12-06T22:58:19.197Z,2.20
2018-12-06T23:00:53.270Z,2.10
2018-12-06T23:03:22.313Z,2.13
2018-12-06T23:05:51.762Z,2.40
2018-12-06T23:08:20.273Z,2.00
2018-12-06T23:10:48.707Z,2.23
2018-12-06T23:13:17.015Z,1.97
2018-12-06T23:15:45.436Z,2.07
2018-12-06T23:18:14.267Z,2.87
2018-12-06T23:20:42.818Z,1.97
2018-12-06T23:23:11.310Z,2.10
2018-12-06T23:25:39.628Z,1.87
2018-12-06T23:28:08.155Z,2.03
2018-12-06T23:30:36.524Z,2.47
2018-12-06T23:33:04.855Z,2.13
2018-12-06T23:35:33.169Z,2.43
2018-12-06T23:38:01.490Z,2.50
2018-12-06T23:40:29.815Z,2.60
2018-12-06T23:42:58.124Z,2.20
2018-12-06T23:45:26.430Z,2.43
2018-12-06T23:47:54.750Z,2.73
2018-12-06T23:50:23.087Z,2.50
2018-12-06T23:52:51.464Z,2.40
2018-12-06T23:55:19.933Z,2.37
2018-12-06T23:57:48.764Z,2.30
